sensor_id;sensor_type;location;lat;lon;timestamp;pressure;altitude;pressure_sealevel;temperature;humidity
15193;BME280;7697;51.630;7.484;2024-01-06T00:02:58;-17342.88;;;8.01;100.00
15193;BME280;7697;51.630;7.484;2024-01-06T00:08:00;-17340.84;;;7.95;100.00
15193;BME280;7697;51.630;7.484;2024-01-06T00:13:02;-17341.53;;;7.97;100.00
15193;BME280;7697;51.630;7.484;2024-01-06T00:18:05;-17343.53;;;8.03;100.00
15193;BME280;7697;51.630;7.484;2024-01-06T00:23:07;-17342.88;;;8.01;100.00
15193;BME280;7697;51.630;7.484;2024-01-06T00:28:08;-17343.22;;;8.02;100.00
15193;BME280;7697;51.630;7.484;2024-01-06T00:33:12;-17342.19;;;7.99;100.00
15193;BME280;7697;51.630;7.484;2024-01-06T00:38:13;-17343.88;;;8.04;100.00
15193;BME280;7697;51.630;7.484;2024-01-06T00:43:15;-17345.06;;;8.08;100.00
15193;BME280;7697;51.630;7.484;2024-01-06T00:48:18;-17343.03;;;8.02;100.00
15193;BME280;7697;51.630;7.484;2024-01-06T00:53:21;-17344.53;;;8.06;100.00
15193;BME280;7697;51.630;7.484;2024-01-06T00:58:23;-17343.88;;;8.04;100.00
15193;BME280;7697;51.630;7.484;2024-01-06T01:03:26;-17345.06;;;8.08;100.00
15193;BME280;7697;51.630;7.484;2024-01-06T01:08:28;-17345.56;;;8.09;100.00
15193;BME280;7697;51.630;7.484;2024-01-06T01:13:31;-17345.88;;;8.10;100.00
15193;BME280;7697;51.630;7.484;2024-01-06T01:18:34;-17346.06;;;8.11;100.00
15193;BME280;7697;51.630;7.484;2024-01-06T01:23:35;-17345.22;;;8.08;100.00
15193;BME280;7697;51.630;7.484;2024-01-06T01:28:37;-17343.53;;;8.03;100.00
15193;BME280;7697;51.630;7.484;2024-01-06T01:33:40;-17343.53;;;8.03;100.00
15193;BME280;7697;51.630;7.484;2024-01-06T01:38:42;-17345.72;;;8.10;100.00
15193;BME280;7697;51.630;7.484;2024-01-06T01:43:45;-17345.06;;;8.08;100.00
15193;BME280;7697;51.630;7.484;2024-01-06T01:48:48;-17343.88;;;8.04;100.00
15193;BME280;7697;51.630;7.484;2024-01-06T01:53:50;-17344.72;;;8.07;100.00
15193;BME280;7697;51.630;7.484;2024-01-06T01:58:52;-17344.88;;;8.07;100.00
15193;BME280;7697;51.630;7.484;2024-01-06T02:03:56;-17344.53;;;8.06;100.00
15193;BME280;7697;51.630;7.484;2024-01-06T02:08:59;-17346.72;;;8.13;100.00
15193;BME280;7697;51.630;7.484;2024-01-06T02:14:00;-17345.56;;;8.09;100.00
15193;BME280;7697;51.630;7.484;2024-01-06T02:19:04;-17345.06;;;8.08;100.00
15193;BME280;7697;51.630;7.484;2024-01-06T02:24:08;-17344.22;;;8.05;100.00
15193;BME280;7697;51.630;7.484;2024-01-06T02:29:10;-17342.69;;;8.01;100.00
15193;BME280;7697;51.630;7.484;2024-01-06T02:34:11;-17342.19;;;7.99;100.00
15193;BME280;7697;51.630;7.484;2024-01-06T02:39:14;-17336.31;;;7.81;100.00
15193;BME280;7697;51.630;7.484;2024-01-06T02:44:16;-17333.47;;;7.73;100.00
15193;BME280;7697;51.630;7.484;2024-01-06T02:49:18;-17331.47;;;7.67;100.00
15193;BME280;7697;51.630;7.484;2024-01-06T02:54:21;-17333.47;;;7.73;100.00
15193;BME280;7697;51.630;7.484;2024-01-06T02:59:22;-17335.66;;;7.79;100.00
15193;BME280;7697;51.630;7.484;2024-01-06T03:04:24;-17332.63;;;7.70;100.00
15193;BME280;7697;51.630;7.484;2024-01-06T03:09:27;-17332.13;;;7.69;100.00
15193;BME280;7697;51.630;7.484;2024-01-06T03:14:29;-17333.47;;;7.73;100.00
15193;BME280;7697;51.630;7.484;2024-01-06T03:19:31;-17333.81;;;7.74;100.00
15193;BME280;7697;51.630;7.484;2024-01-06T03:24:34;-17329.44;;;7.61;100.00
15193;BME280;7697;51.630;7.484;2024-01-06T03:29:35;-17327.28;;;7.54;100.00
15193;BME280;7697;51.630;7.484;2024-01-06T03:34:37;-17327.44;;;7.54;100.00
15193;BME280;7697;51.630;7.484;2024-01-06T03:39:40;-17325.44;;;7.48;100.00
15193;BME280;7697;51.630;7.484;2024-01-06T03:44:42;-17321.22;;;7.36;100.00
15193;BME280;7697;51.630;7.484;2024-01-06T03:49:44;-17321.75;;;7.37;100.00
15193;BME280;7697;51.630;7.484;2024-01-06T03:54:47;-17321.56;;;7.37;100.00
15193;BME280;7697;51.630;7.484;2024-01-06T03:59:48;-17320.72;;;7.34;100.00
15193;BME280;7697;51.630;7.484;2024-01-06T04:04:50;-17319.41;;;7.30;100.00
15193;BME280;7697;51.630;7.484;2024-01-06T04:09:53;-17315.69;;;7.19;100.00
15193;BME280;7697;51.630;7.484;2024-01-06T04:14:55;-17313.53;;;7.12;100.00
15193;BME280;7697;51.630;7.484;2024-01-06T04:19:57;-17308.50;;;6.97;100.00
15193;BME280;7697;51.630;7.484;2024-01-06T04:25:00;-17307.31;;;6.94;100.00
15193;BME280;7697;51.630;7.484;2024-01-06T04:30:02;-17309.00;;;6.99;100.00
15193;BME280;7697;51.630;7.484;2024-01-06T04:35:05;-17307.50;;;6.94;100.00
15193;BME280;7697;51.630;7.484;2024-01-06T04:40:09;-17309.16;;;6.99;100.00
15193;BME280;7697;51.630;7.484;2024-01-06T04:45:11;-17304.47;;;6.85;100.00
15193;BME280;7697;51.630;7.484;2024-01-06T04:50:13;-17305.66;;;6.89;100.00
15193;BME280;7697;51.630;7.484;2024-01-06T04:55:16;-17306.66;;;6.92;100.00
15193;BME280;7697;51.630;7.484;2024-01-06T05:00:18;-17303.78;;;6.83;100.00
15193;BME280;7697;51.630;7.484;2024-01-06T05:05:20;-17300.78;;;6.74;100.00
15193;BME280;7697;51.630;7.484;2024-01-06T05:10:23;-17302.28;;;6.78;100.00
15193;BME280;7697;51.630;7.484;2024-01-06T05:15:25;-17303.47;;;6.82;100.00
15193;BME280;7697;51.630;7.484;2024-01-06T05:20:27;-17302.78;;;6.80;100.00
15193;BME280;7697;51.630;7.484;2024-01-06T05:25:30;-17303.28;;;6.82;100.00
15193;BME280;7697;51.630;7.484;2024-01-06T05:30:32;-17301.63;;;6.76;100.00
15193;BME280;7697;51.630;7.484;2024-01-06T05:35:33;-17301.28;;;6.75;100.00
15193;BME280;7697;51.630;7.484;2024-01-06T05:40:37;-17301.94;;;6.77;100.00
15193;BME280;7697;51.630;7.484;2024-01-06T05:45:38;-17300.28;;;6.72;100.00
15193;BME280;7697;51.630;7.484;2024-01-06T05:50:42;-17295.41;;;6.58;100.00
15193;BME280;7697;51.630;7.484;2024-01-06T05:55:45;-17294.75;;;6.56;100.00
15193;BME280;7697;51.630;7.484;2024-01-06T06:00:46;-17292.22;;;6.48;100.00
15193;BME280;7697;51.630;7.484;2024-01-06T06:05:48;-17290.22;;;6.42;100.00
15193;BME280;7697;51.630;7.484;2024-01-06T06:10:51;-17287.88;;;6.35;100.00
15193;BME280;7697;51.630;7.484;2024-01-06T06:16:01;-17287.03;;;6.32;100.00
15193;BME280;7697;51.630;7.484;2024-01-06T06:21:03;-17287.38;;;6.33;100.00
15193;BME280;7697;51.630;7.484;2024-01-06T06:26:07;-17283.00;;;6.20;100.00
15193;BME280;7697;51.630;7.484;2024-01-06T06:31:09;-17284.53;;;6.25;100.00
15193;BME280;7697;51.630;7.484;2024-01-06T06:36:10;-17279.47;;;6.10;100.00
15193;BME280;7697;51.630;7.484;2024-01-06T06:41:14;-17275.97;;;5.99;100.00
15193;BME280;7697;51.630;7.484;2024-01-06T06:46:16;-17276.13;;;5.99;100.00
15193;BME280;7697;51.630;7.484;2024-01-06T06:51:18;-17277.97;;;6.05;100.00
15193;BME280;7697;51.630;7.484;2024-01-06T06:56:23;-17279.16;;;6.09;100.00
15193;BME280;7697;51.630;7.484;2024-01-06T07:01:25;-17282.50;;;6.19;100.00
15193;BME280;7697;51.630;7.484;2024-01-06T07:06:26;-17279.66;;;6.10;100.00
15193;BME280;7697;51.630;7.484;2024-01-06T07:11:30;-17278.16;;;6.06;100.00
15193;BME280;7697;51.630;7.484;2024-01-06T07:16:32;-17274.63;;;5.95;100.00
15193;BME280;7697;51.630;7.484;2024-01-06T07:21:33;-17277.81;;;6.05;100.00
15193;BME280;7697;51.630;7.484;2024-01-06T07:26:36;-17271.44;;;5.85;100.00
15193;BME280;7697;51.630;7.484;2024-01-06T07:31:38;-17271.09;;;5.84;100.00
15193;BME280;7697;51.630;7.484;2024-01-06T07:36:40;-17268.75;;;5.77;100.00
15193;BME280;7697;51.630;7.484;2024-01-06T07:41:43;-17267.41;;;5.73;100.00
15193;BME280;7697;51.630;7.484;2024-01-06T07:46:45;-17266.75;;;5.71;100.00
15193;BME280;7697;51.630;7.484;2024-01-06T07:51:47;-17265.41;;;5.67;100.00
15193;BME280;7697;51.630;7.484;2024-01-06T07:56:50;-17267.06;;;5.72;100.00
15193;BME280;7697;51.630;7.484;2024-01-06T08:01:53;-17263.38;;;5.61;100.00
15193;BME280;7697;51.630;7.484;2024-01-06T08:06:54;-17260.03;;;5.51;100.00
15193;BME280;7697;51.630;7.484;2024-01-06T08:11:58;-17259.53;;;5.49;100.00
15193;BME280;7697;51.630;7.484;2024-01-06T08:16:59;-17257.69;;;5.44;100.00
15193;BME280;7697;51.630;7.484;2024-01-06T08:22:01;-17260.03;;;5.51;100.00
15193;BME280;7697;51.630;7.484;2024-01-06T08:27:04;-17259.88;;;5.50;100.00
15193;BME280;7697;51.630;7.484;2024-01-06T08:32:07;-17260.53;;;5.52;100.00
15193;BME280;7697;51.630;7.484;2024-01-06T08:37:08;-17261.03;;;5.54;100.00
15193;BME280;7697;51.630;7.484;2024-01-06T08:42:12;-17260.69;;;5.53;100.00
15193;BME280;7697;51.630;7.484;2024-01-06T08:47:13;-17260.69;;;5.53;100.00
15193;BME280;7697;51.630;7.484;2024-01-06T08:52:15;-17259.88;;;5.50;100.00
15193;BME280;7697;51.630;7.484;2024-01-06T08:57:18;-17256.34;;;5.40;100.00
15193;BME280;7697;51.630;7.484;2024-01-06T09:07:30;-17258.19;;;5.45;100.00
15193;BME280;7697;51.630;7.484;2024-01-06T09:12:34;-17258.34;;;5.46;100.00
15193;BME280;7697;51.630;7.484;2024-01-06T09:22:47;-17246.13;;;5.09;100.00
15193;BME280;7697;51.630;7.484;2024-01-06T09:27:50;-17246.63;;;5.10;100.00
15193;BME280;7697;51.630;7.484;2024-01-06T09:32:53;-17244.59;;;5.04;100.00
15193;BME280;7697;51.630;7.484;2024-01-06T09:37:55;-17247.13;;;5.12;100.00
15193;BME280;7697;51.630;7.484;2024-01-06T09:42:59;-17245.28;;;5.06;100.00
15193;BME280;7697;51.630;7.484;2024-01-06T09:48:04;-17245.78;;;5.08;100.00
15193;BME280;7697;51.630;7.484;2024-01-06T09:53:11;-17244.94;;;5.05;100.00
15193;BME280;7697;51.630;7.484;2024-01-06T09:58:14;-17244.59;;;5.04;100.00
15193;BME280;7697;51.630;7.484;2024-01-06T10:03:16;-17242.44;;;4.98;100.00
15193;BME280;7697;51.630;7.484;2024-01-06T10:08:18;-17243.44;;;5.01;100.00
15193;BME280;7697;51.630;7.484;2024-01-06T10:13:21;-17244.09;;;5.03;100.00
15193;BME280;7697;51.630;7.484;2024-01-06T10:18:24;-17242.94;;;4.99;100.00
15193;BME280;7697;51.630;7.484;2024-01-06T10:23:31;-17241.25;;;4.94;100.00
15193;BME280;7697;51.630;7.484;2024-01-06T10:28:36;-17241.41;;;4.95;100.00
15193;BME280;7697;51.630;7.484;2024-01-06T10:33:38;-17237.56;;;4.83;100.00
15193;BME280;7697;51.630;7.484;2024-01-06T10:38:42;-17238.06;;;4.84;100.00
15193;BME280;7697;51.630;7.484;2024-01-06T10:43:49;-17235.06;;;4.75;100.00
15193;BME280;7697;51.630;7.484;2024-01-06T10:48:52;-17235.88;;;4.78;100.00
15193;BME280;7697;51.630;7.484;2024-01-06T10:53:57;-17232.53;;;4.68;100.00
15193;BME280;7697;51.630;7.484;2024-01-06T10:59:03;-17235.56;;;4.77;100.00
15193;BME280;7697;51.630;7.484;2024-01-06T11:04:05;-17237.06;;;4.81;100.00
15193;BME280;7697;51.630;7.484;2024-01-06T11:09:11;-17237.41;;;4.82;100.00
15193;BME280;7697;51.630;7.484;2024-01-06T11:14:21;-17235.06;;;4.75;100.00
15193;BME280;7697;51.630;7.484;2024-01-06T11:19:43;-17232.53;;;4.68;100.00
15193;BME280;7697;51.630;7.484;2024-01-06T11:24:47;-17232.53;;;4.68;100.00
15193;BME280;7697;51.630;7.484;2024-01-06T11:29:52;-17234.56;;;4.74;100.00
15193;BME280;7697;51.630;7.484;2024-01-06T11:34:55;-17230.88;;;4.63;100.00
15193;BME280;7697;51.630;7.484;2024-01-06T11:39:59;-17232.19;;;4.67;100.00
15193;BME280;7697;51.630;7.484;2024-01-06T11:45:04;-17231.19;;;4.64;100.00
15193;BME280;7697;51.630;7.484;2024-01-06T11:50:07;-17228.19;;;4.55;100.00
15193;BME280;7697;51.630;7.484;2024-01-06T11:55:09;-17229.00;;;4.57;100.00
15193;BME280;7697;51.630;7.484;2024-01-06T12:00:13;-17226.00;;;4.48;100.00
15193;BME280;7697;51.630;7.484;2024-01-06T12:05:16;-17224.81;;;4.44;100.00
15193;BME280;7697;51.630;7.484;2024-01-06T12:10:20;-17223.81;;;4.41;100.00
15193;BME280;7697;51.630;7.484;2024-01-06T12:15:23;-17221.66;;;4.35;100.00
15193;BME280;7697;51.630;7.484;2024-01-06T12:20:26;-17225.00;;;4.45;100.00
15193;BME280;7697;51.630;7.484;2024-01-06T12:25:29;-17223.16;;;4.39;100.00
15193;BME280;7697;51.630;7.484;2024-01-06T12:30:36;-17221.47;;;4.34;100.00
15193;BME280;7697;51.630;7.484;2024-01-06T12:35:39;-17218.28;;;4.25;100.00
15193;BME280;7697;51.630;7.484;2024-01-06T12:40:43;-17217.78;;;4.23;100.00
15193;BME280;7697;51.630;7.484;2024-01-06T12:45:46;-17218.78;;;4.26;100.00
15193;BME280;7697;51.630;7.484;2024-01-06T12:50:48;-17216.78;;;4.20;100.00
15193;BME280;7697;51.630;7.484;2024-01-06T12:55:50;-17217.94;;;4.24;100.00
15193;BME280;7697;51.630;7.484;2024-01-06T13:00:54;-17215.44;;;4.16;100.00
15193;BME280;7697;51.630;7.484;2024-01-06T13:05:57;-17213.78;;;4.11;100.00
15193;BME280;7697;51.630;7.484;2024-01-06T13:10:59;-17213.78;;;4.11;100.00
15193;BME280;7697;51.630;7.484;2024-01-06T13:16:09;-17211.75;;;4.05;100.00
15193;BME280;7697;51.630;7.484;2024-01-06T13:21:44;-17210.06;;;4.00;100.00
15193;BME280;7697;51.630;7.484;2024-01-06T13:32:24;-17210.06;;;4.00;100.00
15193;BME280;7697;51.630;7.484;2024-01-06T13:37:47;-17209.06;;;3.97;100.00
15193;BME280;7697;51.630;7.484;2024-01-06T13:43:06;-17207.22;;;3.91;100.00
15193;BME280;7697;51.630;7.484;2024-01-06T13:48:27;-17207.56;;;3.92;100.00
15193;BME280;7697;51.630;7.484;2024-01-06T13:53:32;-17208.72;;;3.96;100.00
15193;BME280;7697;51.630;7.484;2024-01-06T13:58:34;-17208.56;;;3.95;100.00
15193;BME280;7697;51.630;7.484;2024-01-06T14:03:50;-17210.41;;;4.01;100.00
15193;BME280;7697;51.630;7.484;2024-01-06T14:09:01;-17213.59;;;4.10;100.00
15193;BME280;7697;51.630;7.484;2024-01-06T14:14:06;-17211.75;;;4.05;100.00
15193;BME280;7697;51.630;7.484;2024-01-06T14:19:09;-17209.91;;;3.99;100.00
15193;BME280;7697;51.630;7.484;2024-01-06T14:24:12;-17211.91;;;4.05;100.00
15193;BME280;7697;51.630;7.484;2024-01-06T14:29:14;-17209.06;;;3.97;100.00
15193;BME280;7697;51.630;7.484;2024-01-06T14:34:18;-17209.41;;;3.98;100.00
15193;BME280;7697;51.630;7.484;2024-01-06T14:39:19;-17209.56;;;3.98;100.00
15193;BME280;7697;51.630;7.484;2024-01-06T14:44:22;-17209.41;;;3.98;100.00
15193;BME280;7697;51.630;7.484;2024-01-06T14:49:28;-17205.38;;;3.86;100.00
15193;BME280;7697;51.630;7.484;2024-01-06T14:54:30;-17207.56;;;3.92;100.00
15193;BME280;7697;51.630;7.484;2024-01-06T14:59:33;-17208.72;;;3.96;100.00
15193;BME280;7697;51.630;7.484;2024-01-06T15:04:38;-17209.06;;;3.97;100.00
15193;BME280;7697;51.630;7.484;2024-01-06T15:09:41;-17203.38;;;3.80;100.00
15193;BME280;7697;51.630;7.484;2024-01-06T15:14:42;-17213.94;;;4.11;100.00
15193;BME280;7697;51.630;7.484;2024-01-06T15:19:46;-17222.31;;;4.37;100.00
15193;BME280;7697;51.630;7.484;2024-01-06T15:24:48;-17209.06;;;3.97;100.00
15193;BME280;7697;51.630;7.484;2024-01-06T15:29:50;-17204.38;;;3.83;100.00
15193;BME280;7697;51.630;7.484;2024-01-06T15:34:53;-17207.06;;;3.91;100.00
15193;BME280;7697;51.630;7.484;2024-01-06T15:39:55;-17206.72;;;3.90;100.00
15193;BME280;7697;51.630;7.484;2024-01-06T15:44:56;-17208.72;;;3.96;100.00
15193;BME280;7697;51.630;7.484;2024-01-06T15:49:59;-17210.59;;;4.01;100.00
15193;BME280;7697;51.630;7.484;2024-01-06T15:55:06;-17214.44;;;4.13;100.00
15193;BME280;7697;51.630;7.484;2024-01-06T16:00:13;-17213.44;;;4.10;100.00
15193;BME280;7697;51.630;7.484;2024-01-06T16:05:20;-17212.59;;;4.07;100.00
15193;BME280;7697;51.630;7.484;2024-01-06T16:10:24;-17212.75;;;4.08;100.00
15193;BME280;7697;51.630;7.484;2024-01-06T16:15:26;-17212.41;;;4.07;100.00
15193;BME280;7697;51.630;7.484;2024-01-06T16:20:29;-17206.22;;;3.88;100.00
15193;BME280;7697;51.630;7.484;2024-01-06T16:25:36;-17207.41;;;3.92;100.00
15193;BME280;7697;51.630;7.484;2024-01-06T16:30:38;-17205.38;;;3.86;100.00
15193;BME280;7697;51.630;7.484;2024-01-06T16:35:42;-17205.22;;;3.85;100.00
15193;BME280;7697;51.630;7.484;2024-01-06T16:40:46;-17208.56;;;3.95;100.00
15193;BME280;7697;51.630;7.484;2024-01-06T16:45:47;-17207.22;;;3.91;100.00
15193;BME280;7697;51.630;7.484;2024-01-06T16:50:51;-17204.72;;;3.84;100.00
15193;BME280;7697;51.630;7.484;2024-01-06T16:55:52;-17201.88;;;3.75;100.00
15193;BME280;7697;51.630;7.484;2024-01-06T17:00:54;-17202.69;;;3.77;100.00
15193;BME280;7697;51.630;7.484;2024-01-06T17:05:57;-17200.03;;;3.69;100.00
15193;BME280;7697;51.630;7.484;2024-01-06T17:10:59;-17200.03;;;3.69;100.00
15193;BME280;7697;51.630;7.484;2024-01-06T17:16:01;-17199.84;;;3.69;100.00
15193;BME280;7697;51.630;7.484;2024-01-06T17:21:04;-17199.19;;;3.67;100.00
15193;BME280;7697;51.630;7.484;2024-01-06T17:26:06;-17198.34;;;3.64;100.00
15193;BME280;7697;51.630;7.484;2024-01-06T17:31:07;-17201.19;;;3.73;100.00
15193;BME280;7697;51.630;7.484;2024-01-06T17:36:12;-17200.19;;;3.70;100.00
15193;BME280;7697;51.630;7.484;2024-01-06T17:41:15;-17199.03;;;3.66;100.00
15193;BME280;7697;51.630;7.484;2024-01-06T17:46:16;-17199.50;;;3.68;100.00
15193;BME280;7697;51.630;7.484;2024-01-06T17:51:19;-17203.38;;;3.80;100.00
15193;BME280;7697;51.630;7.484;2024-01-06T17:56:24;-17199.03;;;3.66;100.00
15193;BME280;7697;51.630;7.484;2024-01-06T18:01:26;-17199.19;;;3.67;100.00
15193;BME280;7697;51.630;7.484;2024-01-06T18:06:29;-17200.34;;;3.70;100.00
15193;BME280;7697;51.630;7.484;2024-01-06T18:11:31;-17199.03;;;3.66;100.00
15193;BME280;7697;51.630;7.484;2024-01-06T18:16:33;-17196.66;;;3.59;100.00
15193;BME280;7697;51.630;7.484;2024-01-06T18:21:36;-17199.34;;;3.67;100.00
15193;BME280;7697;51.630;7.484;2024-01-06T18:26:37;-17199.50;;;3.68;100.00
15193;BME280;7697;51.630;7.484;2024-01-06T18:31:39;-17200.03;;;3.69;100.00
15193;BME280;7697;51.630;7.484;2024-01-06T18:36:42;-17202.69;;;3.77;100.00
15193;BME280;7697;51.630;7.484;2024-01-06T18:41:44;-17204.38;;;3.83;100.00
15193;BME280;7697;51.630;7.484;2024-01-06T18:46:46;-17202.03;;;3.75;100.00
15193;BME280;7697;51.630;7.484;2024-01-06T18:51:49;-17203.03;;;3.78;100.00
15193;BME280;7697;51.630;7.484;2024-01-06T18:56:51;-17202.88;;;3.78;100.00
15193;BME280;7697;51.630;7.484;2024-01-06T19:01:53;-17201.69;;;3.74;100.00
15193;BME280;7697;51.630;7.484;2024-01-06T19:06:56;-17198.84;;;3.66;100.00
15193;BME280;7697;51.630;7.484;2024-01-06T19:11:58;-17199.03;;;3.66;100.00
15193;BME280;7697;51.630;7.484;2024-01-06T19:17:00;-17197.69;;;3.62;100.00
15193;BME280;7697;51.630;7.484;2024-01-06T19:22:03;-17196.66;;;3.59;100.00
15193;BME280;7697;51.630;7.484;2024-01-06T19:27:05;-17195.84;;;3.57;100.00
15193;BME280;7697;51.630;7.484;2024-01-06T19:32:06;-17196.34;;;3.58;100.00
15193;BME280;7697;51.630;7.484;2024-01-06T19:37:09;-17197.50;;;3.62;100.00
15193;BME280;7697;51.630;7.484;2024-01-06T19:42:11;-17199.19;;;3.67;100.00
15193;BME280;7697;51.630;7.484;2024-01-06T19:47:13;-17200.84;;;3.72;100.00
15193;BME280;7697;51.630;7.484;2024-01-06T19:52:16;-17201.53;;;3.74;100.00
15193;BME280;7697;51.630;7.484;2024-01-06T19:57:18;-17204.38;;;3.83;100.00
15193;BME280;7697;51.630;7.484;2024-01-06T20:02:20;-17206.22;;;3.88;100.00
15193;BME280;7697;51.630;7.484;2024-01-06T20:07:24;-17203.88;;;3.81;100.00
15193;BME280;7697;51.630;7.484;2024-01-06T20:12:28;-17202.53;;;3.77;100.00
15193;BME280;7697;51.630;7.484;2024-01-06T20:17:30;-17203.38;;;3.80;100.00
15193;BME280;7697;51.630;7.484;2024-01-06T20:22:34;-17201.53;;;3.74;100.00
15193;BME280;7697;51.630;7.484;2024-01-06T20:27:35;-17201.03;;;3.72;100.00
15193;BME280;7697;51.630;7.484;2024-01-06T20:32:37;-17201.69;;;3.74;100.00
15193;BME280;7697;51.630;7.484;2024-01-06T20:37:40;-17200.34;;;3.70;100.00
15193;BME280;7697;51.630;7.484;2024-01-06T20:42:42;-17202.38;;;3.76;100.00
15193;BME280;7697;51.630;7.484;2024-01-06T20:47:44;-17201.38;;;3.73;100.00
15193;BME280;7697;51.630;7.484;2024-01-06T20:52:47;-17200.34;;;3.70;100.00
15193;BME280;7697;51.630;7.484;2024-01-06T20:57:49;-17202.19;;;3.76;100.00
15193;BME280;7697;51.630;7.484;2024-01-06T21:02:50;-17198.34;;;3.64;100.00
15193;BME280;7697;51.630;7.484;2024-01-06T21:07:54;-17199.34;;;3.67;100.00
15193;BME280;7697;51.630;7.484;2024-01-06T21:12:55;-17202.38;;;3.76;100.00
15193;BME280;7697;51.630;7.484;2024-01-06T21:17:57;-17201.88;;;3.75;100.00
15193;BME280;7697;51.630;7.484;2024-01-06T21:23:00;-17201.53;;;3.74;100.00
15193;BME280;7697;51.630;7.484;2024-01-06T21:28:03;-17198.84;;;3.66;100.00
15193;BME280;7697;51.630;7.484;2024-01-06T21:33:06;-17202.03;;;3.75;100.00
15193;BME280;7697;51.630;7.484;2024-01-06T21:38:09;-17201.38;;;3.73;100.00
15193;BME280;7697;51.630;7.484;2024-01-06T21:43:12;-17198.34;;;3.64;100.00
15193;BME280;7697;51.630;7.484;2024-01-06T21:48:14;-17202.38;;;3.76;100.00
15193;BME280;7697;51.630;7.484;2024-01-06T21:53:17;-17199.69;;;3.68;100.00
15193;BME280;7697;51.630;7.484;2024-01-06T21:58:19;-17202.03;;;3.75;100.00
15193;BME280;7697;51.630;7.484;2024-01-06T22:03:21;-17205.38;;;3.86;100.00
15193;BME280;7697;51.630;7.484;2024-01-06T22:08:24;-17202.69;;;3.77;100.00
15193;BME280;7697;51.630;7.484;2024-01-06T22:13:26;-17199.34;;;3.67;100.00
15193;BME280;7697;51.630;7.484;2024-01-06T22:18:27;-17200.34;;;3.70;100.00
15193;BME280;7697;51.630;7.484;2024-01-06T22:23:30;-17201.88;;;3.75;100.00
15193;BME280;7697;51.630;7.484;2024-01-06T22:28:32;-17199.19;;;3.67;100.00
15193;BME280;7697;51.630;7.484;2024-01-06T22:33:34;-17199.34;;;3.67;100.00
15193;BME280;7697;51.630;7.484;2024-01-06T22:38:37;-17198.69;;;3.65;100.00
15193;BME280;7697;51.630;7.484;2024-01-06T22:43:38;-17202.38;;;3.76;100.00
15193;BME280;7697;51.630;7.484;2024-01-06T22:48:40;-17199.84;;;3.69;100.00
15193;BME280;7697;51.630;7.484;2024-01-06T22:53:43;-17197.69;;;3.62;100.00
15193;BME280;7697;51.630;7.484;2024-01-06T22:58:45;-17200.53;;;3.71;100.00
15193;BME280;7697;51.630;7.484;2024-01-06T23:03:47;-17198.00;;;3.63;100.00
15193;BME280;7697;51.630;7.484;2024-01-06T23:08:50;-17201.03;;;3.72;100.00
15193;BME280;7697;51.630;7.484;2024-01-06T23:13:52;-17199.03;;;3.66;100.00
15193;BME280;7697;51.630;7.484;2024-01-06T23:18:54;-17194.31;;;3.52;100.00
15193;BME280;7697;51.630;7.484;2024-01-06T23:23:59;-17195.31;;;3.55;100.00
15193;BME280;7697;51.630;7.484;2024-01-06T23:29:01;-17194.16;;;3.52;100.00
15193;BME280;7697;51.630;7.484;2024-01-06T23:34:02;-17195.50;;;3.56;100.00
15193;BME280;7697;51.630;7.484;2024-01-06T23:39:05;-17193.81;;;3.51;100.00
15193;BME280;7697;51.630;7.484;2024-01-06T23:44:07;-17194.81;;;3.54;100.00
15193;BME280;7697;51.630;7.484;2024-01-06T23:49:12;-17194.66;;;3.53;100.00
15193;BME280;7697;51.630;7.484;2024-01-06T23:54:15;-17195.50;;;3.56;100.00
15193;BME280;7697;51.630;7.484;2024-01-06T23:59:17;-17193.66;;;3.50;100.00
